sensor_id;sensor_type;location;lat;lon;timestamp;P1;durP1;ratioP1;P2;durP2;ratioP2
60919;SDS011;59039;52.108;19.942;2023-11-19T00:01:04;147.50;;;47.50;;
60919;SDS011;59039;52.108;19.942;2023-11-19T00:03:30;124.40;;;43.40;;
60919;SDS011;59039;52.108;19.942;2023-11-19T00:05:55;117.20;;;43.40;;
60919;SDS011;59039;52.108;19.942;2023-11-19T00:08:20;128.10;;;49.60;;
60919;SDS011;59039;52.108;19.942;2023-11-19T00:10:45;117.90;;;45.90;;
60919;SDS011;59039;52.108;19.942;2023-11-19T00:13:11;118.80;;;43.90;;
60919;SDS011;59039;52.108;19.942;2023-11-19T00:15:36;107.20;;;40.90;;
60919;SDS011;59039;52.108;19.942;2023-11-19T00:18:01;111.80;;;41.40;;
60919;SDS011;59039;52.108;19.942;2023-11-19T00:20:26;112.50;;;44.60;;
60919;SDS011;59039;52.108;19.942;2023-11-19T00:22:51;128.30;;;47.60;;
60919;SDS011;59039;52.108;19.942;2023-11-19T00:25:17;117.40;;;47.10;;
60919;SDS011;59039;52.108;19.942;2023-11-19T00:27:43;106.40;;;42.80;;
60919;SDS011;59039;52.108;19.942;2023-11-19T00:30:08;109.60;;;43.30;;
60919;SDS011;59039;52.108;19.942;2023-11-19T00:32:33;111.10;;;43.20;;
60919;SDS011;59039;52.108;19.942;2023-11-19T00:34:59;113.10;;;47.60;;
60919;SDS011;59039;52.108;19.942;2023-11-19T00:37:24;120.10;;;47.40;;
60919;SDS011;59039;52.108;19.942;2023-11-19T00:39:50;108.40;;;43.90;;
60919;SDS011;59039;52.108;19.942;2023-11-19T00:42:15;100.00;;;40.10;;
60919;SDS011;59039;52.108;19.942;2023-11-19T00:44:40;97.70;;;40.80;;
60919;SDS011;59039;52.108;19.942;2023-11-19T00:47:05;112.30;;;44.10;;
60919;SDS011;59039;52.108;19.942;2023-11-19T00:49:31;107.30;;;41.90;;
60919;SDS011;59039;52.108;19.942;2023-11-19T00:51:56;91.10;;;41.40;;
60919;SDS011;59039;52.108;19.942;2023-11-19T00:54:21;102.00;;;43.90;;
60919;SDS011;59039;52.108;19.942;2023-11-19T00:56:46;96.50;;;38.50;;
60919;SDS011;59039;52.108;19.942;2023-11-19T00:59:12;102.20;;;41.40;;
60919;SDS011;59039;52.108;19.942;2023-11-19T01:01:37;89.00;;;36.30;;
60919;SDS011;59039;52.108;19.942;2023-11-19T01:04:02;95.10;;;38.10;;
60919;SDS011;59039;52.108;19.942;2023-11-19T01:06:31;92.50;;;41.00;;
60919;SDS011;59039;52.108;19.942;2023-11-19T01:08:56;102.70;;;40.60;;
60919;SDS011;59039;52.108;19.942;2023-11-19T01:11:22;98.90;;;39.90;;
60919;SDS011;59039;52.108;19.942;2023-11-19T01:13:48;94.30;;;37.40;;
60919;SDS011;59039;52.108;19.942;2023-11-19T01:16:14;87.50;;;33.90;;
60919;SDS011;59039;52.108;19.942;2023-11-19T01:18:39;72.90;;;31.80;;
60919;SDS011;59039;52.108;19.942;2023-11-19T01:21:04;85.90;;;34.00;;
60919;SDS011;59039;52.108;19.942;2023-11-19T01:23:30;77.70;;;33.40;;
60919;SDS011;59039;52.108;19.942;2023-11-19T01:25:55;74.70;;;33.60;;
60919;SDS011;59039;52.108;19.942;2023-11-19T01:28:21;77.50;;;32.60;;
60919;SDS011;59039;52.108;19.942;2023-11-19T01:30:46;80.70;;;31.20;;
60919;SDS011;59039;52.108;19.942;2023-11-19T01:33:11;69.80;;;29.40;;
60919;SDS011;59039;52.108;19.942;2023-11-19T01:35:36;64.20;;;30.10;;
60919;SDS011;59039;52.108;19.942;2023-11-19T01:38:01;78.90;;;33.70;;
60919;SDS011;59039;52.108;19.942;2023-11-19T01:40:27;80.10;;;30.90;;
60919;SDS011;59039;52.108;19.942;2023-11-19T01:42:52;70.80;;;29.10;;
60919;SDS011;59039;52.108;19.942;2023-11-19T01:45:27;75.60;;;31.50;;
60919;SDS011;59039;52.108;19.942;2023-11-19T01:47:53;84.70;;;32.30;;
60919;SDS011;59039;52.108;19.942;2023-11-19T01:50:19;85.60;;;33.70;;
60919;SDS011;59039;52.108;19.942;2023-11-19T01:52:44;72.20;;;30.70;;
60919;SDS011;59039;52.108;19.942;2023-11-19T01:55:10;71.30;;;28.10;;
60919;SDS011;59039;52.108;19.942;2023-11-19T01:57:36;65.30;;;27.20;;
60919;SDS011;59039;52.108;19.942;2023-11-19T02:00:02;75.90;;;32.60;;
60919;SDS011;59039;52.108;19.942;2023-11-19T02:02:28;64.80;;;28.20;;
60919;SDS011;59039;52.108;19.942;2023-11-19T02:04:53;67.80;;;28.20;;
60919;SDS011;59039;52.108;19.942;2023-11-19T02:07:19;62.90;;;25.20;;
60919;SDS011;59039;52.108;19.942;2023-11-19T02:09:44;73.20;;;28.70;;
60919;SDS011;59039;52.108;19.942;2023-11-19T02:12:10;81.60;;;31.20;;
60919;SDS011;59039;52.108;19.942;2023-11-19T02:14:35;69.60;;;28.00;;
60919;SDS011;59039;52.108;19.942;2023-11-19T02:17:01;78.00;;;30.70;;
60919;SDS011;59039;52.108;19.942;2023-11-19T02:19:26;87.90;;;34.00;;
60919;SDS011;59039;52.108;19.942;2023-11-19T02:21:51;92.20;;;33.90;;
60919;SDS011;59039;52.108;19.942;2023-11-19T02:24:16;75.10;;;28.60;;
60919;SDS011;59039;52.108;19.942;2023-11-19T02:26:47;72.40;;;30.20;;
60919;SDS011;59039;52.108;19.942;2023-11-19T02:29:15;70.50;;;25.90;;
60919;SDS011;59039;52.108;19.942;2023-11-19T02:31:40;79.10;;;28.70;;
60919;SDS011;59039;52.108;19.942;2023-11-19T02:34:05;81.20;;;31.90;;
60919;SDS011;59039;52.108;19.942;2023-11-19T02:36:31;82.40;;;29.20;;
60919;SDS011;59039;52.108;19.942;2023-11-19T02:38:56;97.50;;;33.70;;
60919;SDS011;59039;52.108;19.942;2023-11-19T02:41:21;178.10;;;48.30;;
60919;SDS011;59039;52.108;19.942;2023-11-19T02:43:46;139.40;;;38.60;;
60919;SDS011;59039;52.108;19.942;2023-11-19T02:46:11;93.70;;;29.80;;
60919;SDS011;59039;52.108;19.942;2023-11-19T02:48:37;77.90;;;27.60;;
60919;SDS011;59039;52.108;19.942;2023-11-19T02:51:02;66.60;;;26.50;;
60919;SDS011;59039;52.108;19.942;2023-11-19T02:53:28;72.60;;;28.20;;
60919;SDS011;59039;52.108;19.942;2023-11-19T02:55:53;86.10;;;30.20;;
60919;SDS011;59039;52.108;19.942;2023-11-19T02:58:18;102.60;;;33.80;;
60919;SDS011;59039;52.108;19.942;2023-11-19T03:00:43;78.10;;;30.00;;
60919;SDS011;59039;52.108;19.942;2023-11-19T03:03:09;87.20;;;32.70;;
60919;SDS011;59039;52.108;19.942;2023-11-19T03:05:34;87.30;;;31.80;;
60919;SDS011;59039;52.108;19.942;2023-11-19T03:07:59;79.10;;;27.30;;
60919;SDS011;59039;52.108;19.942;2023-11-19T03:10:24;81.40;;;29.00;;
60919;SDS011;59039;52.108;19.942;2023-11-19T03:12:49;77.10;;;28.30;;
60919;SDS011;59039;52.108;19.942;2023-11-19T03:15:15;83.90;;;29.80;;
60919;SDS011;59039;52.108;19.942;2023-11-19T03:17:40;76.10;;;28.50;;
60919;SDS011;59039;52.108;19.942;2023-11-19T03:20:08;86.70;;;29.10;;
60919;SDS011;59039;52.108;19.942;2023-11-19T03:22:36;94.30;;;31.40;;
60919;SDS011;59039;52.108;19.942;2023-11-19T03:25:02;82.80;;;29.70;;
60919;SDS011;59039;52.108;19.942;2023-11-19T03:27:27;86.10;;;27.60;;
60919;SDS011;59039;52.108;19.942;2023-11-19T03:29:52;83.80;;;29.10;;
60919;SDS011;59039;52.108;19.942;2023-11-19T03:32:17;91.60;;;33.50;;
60919;SDS011;59039;52.108;19.942;2023-11-19T03:34:43;78.20;;;27.60;;
60919;SDS011;59039;52.108;19.942;2023-11-19T03:37:08;83.20;;;28.20;;
60919;SDS011;59039;52.108;19.942;2023-11-19T03:39:33;81.00;;;29.90;;
60919;SDS011;59039;52.108;19.942;2023-11-19T03:41:58;85.70;;;31.30;;
60919;SDS011;59039;52.108;19.942;2023-11-19T03:44:23;90.80;;;30.50;;
60919;SDS011;59039;52.108;19.942;2023-11-19T03:46:51;90.40;;;31.10;;
60919;SDS011;59039;52.108;19.942;2023-11-19T03:49:17;90.30;;;30.60;;
60919;SDS011;59039;52.108;19.942;2023-11-19T03:51:42;89.70;;;30.20;;
60919;SDS011;59039;52.108;19.942;2023-11-19T03:54:07;90.70;;;29.40;;
60919;SDS011;59039;52.108;19.942;2023-11-19T03:56:32;79.20;;;29.10;;
60919;SDS011;59039;52.108;19.942;2023-11-19T03:58:57;89.20;;;29.90;;
60919;SDS011;59039;52.108;19.942;2023-11-19T04:01:23;88.30;;;29.60;;
60919;SDS011;59039;52.108;19.942;2023-11-19T04:03:48;82.70;;;28.50;;
60919;SDS011;59039;52.108;19.942;2023-11-19T04:06:13;96.70;;;29.30;;
60919;SDS011;59039;52.108;19.942;2023-11-19T04:08:38;81.70;;;28.20;;
60919;SDS011;59039;52.108;19.942;2023-11-19T04:11:04;92.40;;;28.90;;
60919;SDS011;59039;52.108;19.942;2023-11-19T04:13:29;76.00;;;27.30;;
60919;SDS011;59039;52.108;19.942;2023-11-19T04:15:55;84.90;;;28.50;;
60919;SDS011;59039;52.108;19.942;2023-11-19T04:18:20;84.90;;;28.80;;
60919;SDS011;59039;52.108;19.942;2023-11-19T04:20:45;80.80;;;26.70;;
60919;SDS011;59039;52.108;19.942;2023-11-19T04:23:10;68.30;;;26.10;;
60919;SDS011;59039;52.108;19.942;2023-11-19T04:25:35;84.90;;;30.70;;
60919;SDS011;59039;52.108;19.942;2023-11-19T04:28:01;78.30;;;26.40;;
60919;SDS011;59039;52.108;19.942;2023-11-19T04:30:26;81.30;;;27.80;;
60919;SDS011;59039;52.108;19.942;2023-11-19T04:32:51;76.20;;;27.60;;
60919;SDS011;59039;52.108;19.942;2023-11-19T04:35:16;76.20;;;29.00;;
60919;SDS011;59039;52.108;19.942;2023-11-19T04:37:42;79.40;;;28.80;;
60919;SDS011;59039;52.108;19.942;2023-11-19T04:40:07;79.00;;;29.80;;
60919;SDS011;59039;52.108;19.942;2023-11-19T04:42:32;93.00;;;30.30;;
60919;SDS011;59039;52.108;19.942;2023-11-19T04:44:58;82.00;;;29.20;;
60919;SDS011;59039;52.108;19.942;2023-11-19T04:47:23;87.10;;;30.60;;
60919;SDS011;59039;52.108;19.942;2023-11-19T04:49:48;85.10;;;28.50;;
60919;SDS011;59039;52.108;19.942;2023-11-19T04:52:13;78.70;;;28.70;;
60919;SDS011;59039;52.108;19.942;2023-11-19T04:54:42;85.40;;;30.90;;
60919;SDS011;59039;52.108;19.942;2023-11-19T04:57:08;78.30;;;28.40;;
60919;SDS011;59039;52.108;19.942;2023-11-19T04:59:34;79.10;;;28.80;;
60919;SDS011;59039;52.108;19.942;2023-11-19T05:01:59;77.90;;;29.30;;
60919;SDS011;59039;52.108;19.942;2023-11-19T05:04:24;82.60;;;30.10;;
60919;SDS011;59039;52.108;19.942;2023-11-19T05:06:49;80.80;;;29.10;;
60919;SDS011;59039;52.108;19.942;2023-11-19T05:09:14;73.70;;;28.80;;
60919;SDS011;59039;52.108;19.942;2023-11-19T05:11:40;82.80;;;29.20;;
60919;SDS011;59039;52.108;19.942;2023-11-19T05:14:05;75.30;;;27.30;;
60919;SDS011;59039;52.108;19.942;2023-11-19T05:16:30;73.40;;;28.90;;
60919;SDS011;59039;52.108;19.942;2023-11-19T05:18:56;84.10;;;28.60;;
60919;SDS011;59039;52.108;19.942;2023-11-19T05:21:21;85.10;;;30.80;;
60919;SDS011;59039;52.108;19.942;2023-11-19T05:23:46;71.30;;;29.10;;
60919;SDS011;59039;52.108;19.942;2023-11-19T05:26:19;83.10;;;29.20;;
60919;SDS011;59039;52.108;19.942;2023-11-19T05:28:44;78.30;;;28.20;;
60919;SDS011;59039;52.108;19.942;2023-11-19T05:31:10;77.90;;;29.80;;
60919;SDS011;59039;52.108;19.942;2023-11-19T05:33:35;76.80;;;28.20;;
60919;SDS011;59039;52.108;19.942;2023-11-19T05:36:00;63.90;;;26.40;;
60919;SDS011;59039;52.108;19.942;2023-11-19T05:38:25;75.20;;;27.90;;
60919;SDS011;59039;52.108;19.942;2023-11-19T05:40:50;76.60;;;29.00;;
60919;SDS011;59039;52.108;19.942;2023-11-19T05:43:16;70.20;;;28.00;;
60919;SDS011;59039;52.108;19.942;2023-11-19T05:45:41;71.70;;;27.80;;
60919;SDS011;59039;52.108;19.942;2023-11-19T05:48:06;73.40;;;28.30;;
60919;SDS011;59039;52.108;19.942;2023-11-19T05:50:31;69.20;;;25.50;;
60919;SDS011;59039;52.108;19.942;2023-11-19T05:52:56;82.20;;;29.20;;
60919;SDS011;59039;52.108;19.942;2023-11-19T05:55:22;62.90;;;25.40;;
60919;SDS011;59039;52.108;19.942;2023-11-19T05:57:47;76.20;;;27.10;;
60919;SDS011;59039;52.108;19.942;2023-11-19T06:00:12;79.80;;;27.50;;
60919;SDS011;59039;52.108;19.942;2023-11-19T06:02:38;72.90;;;26.90;;
60919;SDS011;59039;52.108;19.942;2023-11-19T06:05:04;72.30;;;26.90;;
60919;SDS011;59039;52.108;19.942;2023-11-19T06:07:29;67.80;;;25.00;;
60919;SDS011;59039;52.108;19.942;2023-11-19T06:09:55;67.10;;;26.50;;
60919;SDS011;59039;52.108;19.942;2023-11-19T06:12:20;68.50;;;27.20;;
60919;SDS011;59039;52.108;19.942;2023-11-19T06:14:45;67.70;;;26.30;;
60919;SDS011;59039;52.108;19.942;2023-11-19T06:17:10;77.60;;;28.10;;
60919;SDS011;59039;52.108;19.942;2023-11-19T06:19:35;78.60;;;29.00;;
60919;SDS011;59039;52.108;19.942;2023-11-19T06:22:01;71.20;;;27.50;;
60919;SDS011;59039;52.108;19.942;2023-11-19T06:24:26;79.80;;;28.30;;
60919;SDS011;59039;52.108;19.942;2023-11-19T06:26:51;76.70;;;28.80;;
60919;SDS011;59039;52.108;19.942;2023-11-19T06:29:16;67.20;;;28.60;;
60919;SDS011;59039;52.108;19.942;2023-11-19T06:31:41;82.20;;;31.50;;
60919;SDS011;59039;52.108;19.942;2023-11-19T06:34:07;83.80;;;32.70;;
60919;SDS011;59039;52.108;19.942;2023-11-19T06:36:32;86.30;;;32.70;;
60919;SDS011;59039;52.108;19.942;2023-11-19T06:38:57;94.20;;;31.80;;
60919;SDS011;59039;52.108;19.942;2023-11-19T06:41:22;87.50;;;31.10;;
60919;SDS011;59039;52.108;19.942;2023-11-19T06:43:47;84.20;;;29.40;;
60919;SDS011;59039;52.108;19.942;2023-11-19T06:46:16;70.20;;;27.30;;
60919;SDS011;59039;52.108;19.942;2023-11-19T06:48:42;82.00;;;29.30;;
60919;SDS011;59039;52.108;19.942;2023-11-19T06:51:07;81.90;;;31.30;;
60919;SDS011;59039;52.108;19.942;2023-11-19T06:53:32;84.20;;;30.60;;
60919;SDS011;59039;52.108;19.942;2023-11-19T06:55:57;79.40;;;28.70;;
60919;SDS011;59039;52.108;19.942;2023-11-19T06:58:22;78.10;;;29.90;;
60919;SDS011;59039;52.108;19.942;2023-11-19T07:00:48;75.20;;;27.50;;
60919;SDS011;59039;52.108;19.942;2023-11-19T07:03:13;90.30;;;30.30;;
60919;SDS011;59039;52.108;19.942;2023-11-19T07:05:38;82.60;;;28.30;;
60919;SDS011;59039;52.108;19.942;2023-11-19T07:08:03;84.50;;;30.00;;
60919;SDS011;59039;52.108;19.942;2023-11-19T07:10:30;79.70;;;28.30;;
60919;SDS011;59039;52.108;19.942;2023-11-19T07:12:56;81.20;;;28.60;;
60919;SDS011;59039;52.108;19.942;2023-11-19T07:15:21;81.00;;;29.10;;
60919;SDS011;59039;52.108;19.942;2023-11-19T07:17:46;83.60;;;30.00;;
60919;SDS011;59039;52.108;19.942;2023-11-19T07:20:12;75.40;;;29.90;;
60919;SDS011;59039;52.108;19.942;2023-11-19T07:22:37;89.70;;;32.50;;
60919;SDS011;59039;52.108;19.942;2023-11-19T07:25:02;100.50;;;34.80;;
60919;SDS011;59039;52.108;19.942;2023-11-19T07:27:27;96.80;;;35.50;;
60919;SDS011;59039;52.108;19.942;2023-11-19T07:29:52;93.30;;;34.70;;
60919;SDS011;59039;52.108;19.942;2023-11-19T07:32:18;88.20;;;34.30;;
60919;SDS011;59039;52.108;19.942;2023-11-19T07:34:43;75.10;;;29.10;;
60919;SDS011;59039;52.108;19.942;2023-11-19T07:37:08;104.70;;;42.90;;
60919;SDS011;59039;52.108;19.942;2023-11-19T07:39:33;106.50;;;38.50;;
60919;SDS011;59039;52.108;19.942;2023-11-19T07:41:58;116.90;;;43.90;;
60919;SDS011;59039;52.108;19.942;2023-11-19T07:44:24;126.00;;;44.70;;
60919;SDS011;59039;52.108;19.942;2023-11-19T07:46:49;127.30;;;45.10;;
60919;SDS011;59039;52.108;19.942;2023-11-19T07:49:14;119.50;;;45.30;;
60919;SDS011;59039;52.108;19.942;2023-11-19T07:51:40;130.30;;;44.00;;
60919;SDS011;59039;52.108;19.942;2023-11-19T07:54:05;104.50;;;42.00;;
60919;SDS011;59039;52.108;19.942;2023-11-19T07:56:34;83.60;;;37.80;;
60919;SDS011;59039;52.108;19.942;2023-11-19T07:58:59;87.30;;;35.80;;
60919;SDS011;59039;52.108;19.942;2023-11-19T08:01:24;101.50;;;40.50;;
60919;SDS011;59039;52.108;19.942;2023-11-19T08:03:50;91.90;;;35.00;;
60919;SDS011;59039;52.108;19.942;2023-11-19T08:06:15;89.90;;;33.70;;
60919;SDS011;59039;52.108;19.942;2023-11-19T08:08:40;85.60;;;37.50;;
60919;SDS011;59039;52.108;19.942;2023-11-19T08:11:05;107.00;;;43.90;;
60919;SDS011;59039;52.108;19.942;2023-11-19T08:13:31;119.20;;;51.00;;
60919;SDS011;59039;52.108;19.942;2023-11-19T08:15:56;127.70;;;51.40;;
60919;SDS011;59039;52.108;19.942;2023-11-19T08:18:21;111.00;;;47.80;;
60919;SDS011;59039;52.108;19.942;2023-11-19T08:20:46;103.50;;;41.20;;
60919;SDS011;59039;52.108;19.942;2023-11-19T08:23:11;90.20;;;37.00;;
60919;SDS011;59039;52.108;19.942;2023-11-19T08:25:37;83.90;;;34.00;;
60919;SDS011;59039;52.108;19.942;2023-11-19T08:28:02;98.60;;;36.80;;
60919;SDS011;59039;52.108;19.942;2023-11-19T08:30:27;95.80;;;35.80;;
60919;SDS011;59039;52.108;19.942;2023-11-19T08:32:52;113.60;;;42.40;;
60919;SDS011;59039;52.108;19.942;2023-11-19T08:35:17;158.90;;;51.20;;
60919;SDS011;59039;52.108;19.942;2023-11-19T08:37:43;133.90;;;42.90;;
60919;SDS011;59039;52.108;19.942;2023-11-19T08:40:08;89.30;;;31.70;;
60919;SDS011;59039;52.108;19.942;2023-11-19T08:42:33;102.80;;;35.20;;
60919;SDS011;59039;52.108;19.942;2023-11-19T08:44:59;80.80;;;30.00;;
60919;SDS011;59039;52.108;19.942;2023-11-19T08:47:24;138.80;;;45.00;;
60919;SDS011;59039;52.108;19.942;2023-11-19T08:49:52;114.70;;;40.90;;
60919;SDS011;59039;52.108;19.942;2023-11-19T08:52:17;112.30;;;43.10;;
60919;SDS011;59039;52.108;19.942;2023-11-19T08:54:43;116.50;;;43.10;;
60919;SDS011;59039;52.108;19.942;2023-11-19T08:57:08;144.20;;;59.30;;
60919;SDS011;59039;52.108;19.942;2023-11-19T08:59:34;164.90;;;66.10;;
60919;SDS011;59039;52.108;19.942;2023-11-19T09:01:59;122.20;;;47.80;;
60919;SDS011;59039;52.108;19.942;2023-11-19T09:04:24;135.20;;;53.50;;
60919;SDS011;59039;52.108;19.942;2023-11-19T09:06:50;92.60;;;38.70;;
60919;SDS011;59039;52.108;19.942;2023-11-19T09:09:15;79.70;;;30.80;;
60919;SDS011;59039;52.108;19.942;2023-11-19T09:11:40;86.80;;;35.70;;
60919;SDS011;59039;52.108;19.942;2023-11-19T09:14:05;70.90;;;29.20;;
60919;SDS011;59039;52.108;19.942;2023-11-19T09:16:31;76.40;;;29.80;;
60919;SDS011;59039;52.108;19.942;2023-11-19T09:18:56;69.50;;;29.10;;
60919;SDS011;59039;52.108;19.942;2023-11-19T09:21:21;93.20;;;37.20;;
60919;SDS011;59039;52.108;19.942;2023-11-19T09:23:46;83.40;;;37.60;;
60919;SDS011;59039;52.108;19.942;2023-11-19T09:26:12;109.60;;;45.00;;
60919;SDS011;59039;52.108;19.942;2023-11-19T09:28:37;109.00;;;42.30;;
60919;SDS011;59039;52.108;19.942;2023-11-19T09:31:02;92.50;;;35.80;;
60919;SDS011;59039;52.108;19.942;2023-11-19T09:33:27;111.80;;;49.70;;
60919;SDS011;59039;52.108;19.942;2023-11-19T09:35:52;105.90;;;40.60;;
60919;SDS011;59039;52.108;19.942;2023-11-19T09:38:18;145.00;;;48.40;;
60919;SDS011;59039;52.108;19.942;2023-11-19T09:40:43;116.20;;;38.50;;
60919;SDS011;59039;52.108;19.942;2023-11-19T09:43:08;93.80;;;34.40;;
60919;SDS011;59039;52.108;19.942;2023-11-19T09:45:50;106.10;;;38.90;;
60919;SDS011;59039;52.108;19.942;2023-11-19T09:48:18;105.40;;;38.00;;
60919;SDS011;59039;52.108;19.942;2023-11-19T09:50:45;91.70;;;36.00;;
60919;SDS011;59039;52.108;19.942;2023-11-19T09:53:12;102.70;;;41.10;;
60919;SDS011;59039;52.108;19.942;2023-11-19T09:55:37;127.80;;;43.70;;
60919;SDS011;59039;52.108;19.942;2023-11-19T09:58:03;136.80;;;48.00;;
60919;SDS011;59039;52.108;19.942;2023-11-19T10:00:28;98.40;;;35.80;;
60919;SDS011;59039;52.108;19.942;2023-11-19T10:02:55;78.10;;;31.60;;
60919;SDS011;59039;52.108;19.942;2023-11-19T10:05:21;79.30;;;31.10;;
60919;SDS011;59039;52.108;19.942;2023-11-19T10:07:48;102.70;;;38.70;;
60919;SDS011;59039;52.108;19.942;2023-11-19T10:10:14;141.00;;;48.00;;
60919;SDS011;59039;52.108;19.942;2023-11-19T10:12:39;144.50;;;47.10;;
60919;SDS011;59039;52.108;19.942;2023-11-19T10:15:04;110.00;;;40.30;;
60919;SDS011;59039;52.108;19.942;2023-11-19T10:17:37;99.10;;;36.30;;
60919;SDS011;59039;52.108;19.942;2023-11-19T10:20:03;98.00;;;36.10;;
60919;SDS011;59039;52.108;19.942;2023-11-19T10:22:28;85.00;;;34.90;;
60919;SDS011;59039;52.108;19.942;2023-11-19T10:24:54;81.70;;;33.10;;
60919;SDS011;59039;52.108;19.942;2023-11-19T10:27:19;92.90;;;35.00;;
60919;SDS011;59039;52.108;19.942;2023-11-19T10:29:45;93.40;;;34.00;;
60919;SDS011;59039;52.108;19.942;2023-11-19T10:32:11;154.10;;;54.30;;
60919;SDS011;59039;52.108;19.942;2023-11-19T10:34:37;130.90;;;43.20;;
60919;SDS011;59039;52.108;19.942;2023-11-19T10:37:02;93.60;;;34.80;;
60919;SDS011;59039;52.108;19.942;2023-11-19T10:42:18;116.20;;;41.70;;
60919;SDS011;59039;52.108;19.942;2023-11-19T10:44:44;102.50;;;36.00;;
60919;SDS011;59039;52.108;19.942;2023-11-19T10:47:09;117.60;;;43.70;;
60919;SDS011;59039;52.108;19.942;2023-11-19T10:49:36;102.90;;;40.10;;
60919;SDS011;59039;52.108;19.942;2023-11-19T10:52:02;87.10;;;32.40;;
60919;SDS011;59039;52.108;19.942;2023-11-19T10:54:28;86.60;;;33.50;;
60919;SDS011;59039;52.108;19.942;2023-11-19T10:56:59;89.60;;;34.60;;
60919;SDS011;59039;52.108;19.942;2023-11-19T10:59:25;78.30;;;29.20;;
60919;SDS011;59039;52.108;19.942;2023-11-19T11:01:54;96.50;;;34.10;;
60919;SDS011;59039;52.108;19.942;2023-11-19T11:04:24;83.70;;;34.90;;
60919;SDS011;59039;52.108;19.942;2023-11-19T11:06:51;68.70;;;29.40;;
60919;SDS011;59039;52.108;19.942;2023-11-19T11:09:19;77.10;;;28.70;;
60919;SDS011;59039;52.108;19.942;2023-11-19T11:11:46;67.10;;;27.40;;
60919;SDS011;59039;52.108;19.942;2023-11-19T11:14:12;68.50;;;25.50;;
60919;SDS011;59039;52.108;19.942;2023-11-19T11:16:39;74.30;;;27.50;;
60919;SDS011;59039;52.108;19.942;2023-11-19T11:19:11;80.20;;;29.90;;
60919;SDS011;59039;52.108;19.942;2023-11-19T11:21:37;74.40;;;29.20;;
60919;SDS011;59039;52.108;19.942;2023-11-19T11:29:20;78.50;;;29.90;;
60919;SDS011;59039;52.108;19.942;2023-11-19T11:37:17;88.50;;;30.80;;
60919;SDS011;59039;52.108;19.942;2023-11-19T11:39:46;84.60;;;30.90;;
60919;SDS011;59039;52.108;19.942;2023-11-19T11:48:00;64.30;;;26.60;;
60919;SDS011;59039;52.108;19.942;2023-11-19T11:50:18;70.40;;;28.70;;
60919;SDS011;59039;52.108;19.942;2023-11-19T11:55:25;76.70;;;27.60;;
60919;SDS011;59039;52.108;19.942;2023-11-19T11:57:51;74.60;;;27.70;;
60919;SDS011;59039;52.108;19.942;2023-11-19T12:02:58;115.90;;;39.60;;
60919;SDS011;59039;52.108;19.942;2023-11-19T12:05:25;112.70;;;38.50;;
60919;SDS011;59039;52.108;19.942;2023-11-19T12:07:57;127.20;;;41.50;;
60919;SDS011;59039;52.108;19.942;2023-11-19T12:10:25;110.00;;;40.70;;
60919;SDS011;59039;52.108;19.942;2023-11-19T12:12:53;99.70;;;36.90;;
60919;SDS011;59039;52.108;19.942;2023-11-19T12:15:18;129.40;;;49.20;;
60919;SDS011;59039;52.108;19.942;2023-11-19T12:17:47;95.00;;;35.60;;
60919;SDS011;59039;52.108;19.942;2023-11-19T12:20:14;82.30;;;34.90;;
60919;SDS011;59039;52.108;19.942;2023-11-19T12:22:39;86.70;;;34.30;;
60919;SDS011;59039;52.108;19.942;2023-11-19T12:25:06;83.50;;;35.30;;
60919;SDS011;59039;52.108;19.942;2023-11-19T12:27:33;84.70;;;39.10;;
60919;SDS011;59039;52.108;19.942;2023-11-19T12:29:58;93.60;;;40.10;;
60919;SDS011;59039;52.108;19.942;2023-11-19T12:32:23;79.30;;;33.60;;
60919;SDS011;59039;52.108;19.942;2023-11-19T12:34:48;91.70;;;36.00;;
60919;SDS011;59039;52.108;19.942;2023-11-19T12:37:14;86.40;;;38.10;;
60919;SDS011;59039;52.108;19.942;2023-11-19T12:39:39;84.80;;;39.90;;
60919;SDS011;59039;52.108;19.942;2023-11-19T12:42:04;70.20;;;28.30;;
60919;SDS011;59039;52.108;19.942;2023-11-19T12:44:30;75.50;;;30.80;;
60919;SDS011;59039;52.108;19.942;2023-11-19T12:47:05;70.60;;;27.50;;
60919;SDS011;59039;52.108;19.942;2023-11-19T12:49:33;78.10;;;30.00;;
60919;SDS011;59039;52.108;19.942;2023-11-19T12:51:59;89.20;;;32.10;;
60919;SDS011;59039;52.108;19.942;2023-11-19T12:54:36;88.50;;;32.50;;
60919;SDS011;59039;52.108;19.942;2023-11-19T12:57:02;73.50;;;25.20;;
60919;SDS011;59039;52.108;19.942;2023-11-19T12:59:28;69.70;;;25.40;;
60919;SDS011;59039;52.108;19.942;2023-11-19T13:01:57;80.20;;;31.20;;
60919;SDS011;59039;52.108;19.942;2023-11-19T13:04:23;124.30;;;41.20;;
60919;SDS011;59039;52.108;19.942;2023-11-19T13:06:52;158.50;;;47.70;;
60919;SDS011;59039;52.108;19.942;2023-11-19T13:09:23;187.40;;;64.00;;
60919;SDS011;59039;52.108;19.942;2023-11-19T13:11:50;137.50;;;52.10;;
60919;SDS011;59039;52.108;19.942;2023-11-19T13:14:16;108.30;;;40.00;;
60919;SDS011;59039;52.108;19.942;2023-11-19T13:16:41;111.70;;;39.20;;
60919;SDS011;59039;52.108;19.942;2023-11-19T13:19:07;96.40;;;32.20;;
60919;SDS011;59039;52.108;19.942;2023-11-19T13:21:32;111.80;;;43.20;;
60919;SDS011;59039;52.108;19.942;2023-11-19T13:23:57;111.70;;;43.80;;
60919;SDS011;59039;52.108;19.942;2023-11-19T13:26:23;95.40;;;39.80;;
60919;SDS011;59039;52.108;19.942;2023-11-19T13:28:48;117.10;;;49.50;;
60919;SDS011;59039;52.108;19.942;2023-11-19T13:31:13;102.80;;;40.40;;
60919;SDS011;59039;52.108;19.942;2023-11-19T13:33:38;90.80;;;40.30;;
60919;SDS011;59039;52.108;19.942;2023-11-19T13:36:04;94.90;;;41.50;;
60919;SDS011;59039;52.108;19.942;2023-11-19T13:38:29;105.60;;;40.90;;
60919;SDS011;59039;52.108;19.942;2023-11-19T13:40:55;82.30;;;34.70;;
60919;SDS011;59039;52.108;19.942;2023-11-19T13:43:20;93.60;;;38.30;;
60919;SDS011;59039;52.108;19.942;2023-11-19T13:45:45;86.90;;;34.40;;
60919;SDS011;59039;52.108;19.942;2023-11-19T13:48:10;88.50;;;33.00;;
60919;SDS011;59039;52.108;19.942;2023-11-19T13:50:35;109.40;;;38.30;;
60919;SDS011;59039;52.108;19.942;2023-11-19T13:53:01;130.90;;;46.60;;
60919;SDS011;59039;52.108;19.942;2023-11-19T13:55:26;133.50;;;47.20;;
60919;SDS011;59039;52.108;19.942;2023-11-19T13:57:51;111.30;;;40.40;;
60919;SDS011;59039;52.108;19.942;2023-11-19T14:00:17;94.20;;;38.80;;
60919;SDS011;59039;52.108;19.942;2023-11-19T14:02:42;122.10;;;47.20;;
60919;SDS011;59039;52.108;19.942;2023-11-19T14:05:11;116.00;;;42.10;;
60919;SDS011;59039;52.108;19.942;2023-11-19T14:07:37;99.10;;;41.20;;
60919;SDS011;59039;52.108;19.942;2023-11-19T14:10:05;101.30;;;40.70;;
60919;SDS011;59039;52.108;19.942;2023-11-19T14:12:32;113.00;;;40.00;;
60919;SDS011;59039;52.108;19.942;2023-11-19T14:14:58;101.10;;;38.50;;
60919;SDS011;59039;52.108;19.942;2023-11-19T14:17:23;133.20;;;44.00;;
60919;SDS011;59039;52.108;19.942;2023-11-19T14:19:49;154.40;;;50.80;;
60919;SDS011;59039;52.108;19.942;2023-11-19T14:22:14;113.60;;;39.20;;